createdAt,value
2019-03-30T00:00:10.440Z,87.89
2019-03-30T00:03:23.146Z,88.06
2019-03-30T00:06:30.960Z,89.45
2019-03-30T00:09:38.812Z,88.78
2019-03-30T00:12:46.774Z,88.70
2019-03-30T00:15:54.667Z,88.15
2019-03-30T00:19:02.481Z,88.22
2019-03-30T00:22:10.400Z,87.30
2019-03-30T00:25:20.061Z,87.84
2019-03-30T00:28:28.625Z,87.87
2019-03-30T00:31:36.501Z,87.69
2019-03-30T00:34:44.325Z,88.33
2019-03-30T00:37:52.092Z,87.08
2019-03-30T00:41:00.335Z,87.48
2019-03-30T00:44:08.103Z,87.56
2019-03-30T00:47:15.947Z,87.20
2019-03-30T00:50:23.697Z,87.71
2019-03-30T00:53:31.688Z,87.90
2019-03-30T00:56:40.640Z,88.14
2019-03-30T00:59:48.511Z,88.20
2019-03-30T01:02:56.257Z,88.57
2019-03-30T01:06:04.110Z,89.46
2019-03-30T01:09:12.010Z,90.12
2019-03-30T01:12:19.816Z,89.52
2019-03-30T01:15:28.857Z,89.43
2019-03-30T01:18:36.671Z,90.24
2019-03-30T01:21:44.451Z,90.29
2019-03-30T01:24:52.251Z,89.60
2019-03-30T01:28:02.892Z,90.56
2019-03-30T01:31:11.675Z,90.96
2019-03-30T01:34:21.772Z,89.44
2019-03-30T01:37:29.627Z,90.13
2019-03-30T01:40:37.407Z,88.78
2019-03-30T01:43:45.225Z,89.15
2019-03-30T01:46:53.291Z,91.03
2019-03-30T01:50:01.194Z,90.38
2019-03-30T01:53:08.950Z,90.43
2019-03-30T01:56:16.732Z,89.61
2019-03-30T01:59:24.503Z,89.71
2019-03-30T02:02:32.231Z,90.56
2019-03-30T02:05:39.998Z,90.05
2019-03-30T02:08:47.927Z,91.01
2019-03-30T02:11:57.268Z,89.49
2019-03-30T02:15:05.775Z,89.73
2019-03-30T02:18:15.108Z,90.76
2019-03-30T02:21:22.958Z,90.10
2019-03-30T02:24:30.821Z,91.47
2019-03-30T02:27:38.786Z,90.95
2019-03-30T02:30:46.614Z,91.51
2019-03-30T02:33:54.559Z,90.82
2019-03-30T02:37:02.347Z,91.10
2019-03-30T02:40:10.258Z,91.03
2019-03-30T02:43:18.183Z,91.10
2019-03-30T02:46:26.135Z,91.54
2019-03-30T02:49:34.210Z,91.57
2019-03-30T02:52:41.964Z,90.96
2019-03-30T02:55:49.703Z,89.71
2019-03-30T02:58:58.121Z,90.62
2019-03-30T03:02:06.051Z,91.02
2019-03-30T03:05:14.021Z,91.07
2019-03-30T03:08:21.848Z,91.50
2019-03-30T03:11:29.685Z,90.21
2019-03-30T03:14:37.742Z,90.37
2019-03-30T03:17:45.579Z,91.59
2019-03-30T03:21:06.552Z,90.00
2019-03-30T03:24:05.291Z,89.82
2019-03-30T03:27:13.103Z,90.18
2019-03-30T03:30:23.886Z,89.64
2019-03-30T03:33:31.667Z,90.38
2019-03-30T03:36:39.586Z,89.71
2019-03-30T03:39:47.362Z,89.53
2019-03-30T03:42:57.772Z,89.90
2019-03-30T03:46:05.704Z,89.51
2019-03-30T03:49:13.642Z,89.91
2019-03-30T03:52:21.883Z,90.27
2019-03-30T03:55:30.645Z,90.24
2019-03-30T03:58:39.891Z,89.33
2019-03-30T04:01:49.615Z,89.20
2019-03-30T04:05:01.630Z,90.08
2019-03-30T04:08:12.907Z,90.75
2019-03-30T04:11:22.600Z,90.44
2019-03-30T04:14:30.927Z,89.73
2019-03-30T04:17:39.108Z,90.32
2019-03-30T04:20:46.988Z,90.14
2019-03-30T04:23:55.142Z,89.98
2019-03-30T04:27:03.226Z,90.09
2019-03-30T04:30:10.939Z,90.55
2019-03-30T04:33:19.824Z,90.41
2019-03-30T04:36:28.217Z,90.26
2019-03-30T04:39:35.908Z,89.63
2019-03-30T04:42:47.533Z,90.43
2019-03-30T04:45:55.384Z,90.55
2019-03-30T04:49:03.093Z,89.86
2019-03-30T04:52:10.931Z,89.82
2019-03-30T04:55:19.727Z,90.12
2019-03-30T04:58:29.575Z,89.94
2019-03-30T05:01:38.669Z,90.17
2019-03-30T05:04:46.552Z,90.44
2019-03-30T05:07:55.967Z,89.72
2019-03-30T05:11:03.799Z,90.29
2019-03-30T05:14:11.664Z,90.85
2019-03-30T05:17:22.279Z,90.96
2019-03-30T05:20:30.028Z,90.72
2019-03-30T05:23:39.542Z,90.71
2019-03-30T05:26:47.710Z,89.93
2019-03-30T05:29:55.554Z,90.56
2019-03-30T05:33:06.090Z,90.44
2019-03-30T05:36:12.917Z,90.32
2019-03-30T05:39:20.657Z,90.55
2019-03-30T05:42:28.507Z,89.72
2019-03-30T05:45:36.398Z,87.80
2019-03-30T05:48:45.137Z,87.28
2019-03-30T05:51:52.905Z,88.97
2019-03-30T05:55:00.608Z,89.46
2019-03-30T05:58:08.731Z,89.40
2019-03-30T06:01:16.546Z,88.99
2019-03-30T06:04:24.393Z,89.27
2019-03-30T06:07:49.648Z,89.29
2019-03-30T06:10:58.052Z,89.54
2019-03-30T06:14:05.889Z,89.04
2019-03-30T06:17:13.687Z,89.17
2019-03-30T06:20:24.402Z,88.38
2019-03-30T06:23:33.358Z,88.38
2019-03-30T06:26:42.897Z,88.55
2019-03-30T06:30:40.378Z,88.26
2019-03-30T06:33:48.322Z,87.84
2019-03-30T06:36:58.630Z,87.57
2019-03-30T06:40:06.528Z,86.94
2019-03-30T06:43:14.372Z,86.71
2019-03-30T06:46:22.382Z,86.66
2019-03-30T06:49:30.171Z,86.43
2019-03-30T06:52:51.025Z,86.12
2019-03-30T06:55:50.688Z,85.62
2019-03-30T06:58:59.963Z,85.27
2019-03-30T07:02:09.696Z,84.82
2019-03-30T07:05:17.726Z,84.99
2019-03-30T07:08:27.307Z,84.62
2019-03-30T07:11:42.593Z,84.18
2019-03-30T07:14:53.809Z,83.71
2019-03-30T07:18:04.611Z,84.12
2019-03-30T07:21:12.445Z,83.23
2019-03-30T07:24:20.315Z,83.54
2019-03-30T07:27:28.976Z,83.66
2019-03-30T07:30:39.607Z,83.23
2019-03-30T07:33:50.784Z,82.23
2019-03-30T07:36:59.818Z,80.89
2019-03-30T07:40:08.268Z,81.74
2019-03-30T07:43:16.148Z,80.28
2019-03-30T07:46:24.084Z,81.41
2019-03-30T07:49:32.102Z,82.46
2019-03-30T07:52:42.833Z,81.20
2019-03-30T07:55:50.642Z,80.34
2019-03-30T07:58:58.412Z,78.41
2019-03-30T08:02:06.645Z,78.06
2019-03-30T08:05:14.956Z,76.22
2019-03-30T08:08:22.826Z,77.45
2019-03-30T08:11:30.794Z,74.48
2019-03-30T08:14:40.510Z,75.92
2019-03-30T08:17:48.328Z,74.69
2019-03-30T08:20:56.267Z,74.10
2019-03-30T08:24:05.046Z,74.28
2019-03-30T08:27:14.007Z,73.28
2019-03-30T08:30:21.697Z,72.71
2019-03-30T08:33:30.694Z,72.40
2019-03-30T08:36:39.896Z,73.95
2019-03-30T08:39:47.813Z,72.79
2019-03-30T08:42:55.703Z,70.34
2019-03-30T08:46:03.616Z,68.95
2019-03-30T08:49:11.555Z,70.08
2019-03-30T08:52:19.430Z,67.11
2019-03-30T08:55:27.332Z,69.87
2019-03-30T08:58:35.129Z,65.95
2019-03-30T09:01:46.173Z,66.99
2019-03-30T09:04:54.267Z,68.59
2019-03-30T09:08:02.478Z,67.77
2019-03-30T09:11:10.372Z,61.63
2019-03-30T09:14:18.251Z,62.82
2019-03-30T09:17:26.295Z,60.97
2019-03-30T09:20:34.159Z,60.04
2019-03-30T09:23:42.146Z,59.37
2019-03-30T09:26:50.033Z,59.29
2019-03-30T09:29:58.948Z,59.52
2019-03-30T09:33:07.025Z,60.56
2019-03-30T09:36:14.971Z,56.36
2019-03-30T09:39:22.831Z,58.04
2019-03-30T09:42:30.799Z,58.98
2019-03-30T09:45:42.119Z,57.82
2019-03-30T09:48:50.001Z,60.94
2019-03-30T09:51:57.894Z,58.25
2019-03-30T09:55:07.959Z,56.23
2019-03-30T09:58:15.963Z,57.20
2019-03-30T10:01:24.028Z,56.82
2019-03-30T10:04:31.994Z,57.83
2019-03-30T10:07:44.215Z,57.94
2019-03-30T10:10:52.225Z,55.97
2019-03-30T10:14:01.334Z,56.04
2019-03-30T10:17:09.217Z,56.35
2019-03-30T10:20:17.262Z,54.85
2019-03-30T10:23:25.213Z,55.97
2019-03-30T10:26:33.141Z,55.91
2019-03-30T10:29:42.072Z,53.90
2019-03-30T10:32:49.988Z,54.54
2019-03-30T10:35:57.867Z,52.54
2019-03-30T10:39:07.293Z,52.54
2019-03-30T10:42:15.247Z,50.92
2019-03-30T10:45:23.535Z,51.98
2019-03-30T10:48:31.508Z,52.84
2019-03-30T10:51:44.488Z,53.11
2019-03-30T10:54:53.303Z,51.73
2019-03-30T10:58:03.113Z,51.23
2019-03-30T11:01:11.390Z,52.49
2019-03-30T11:04:20.667Z,51.85
2019-03-30T11:07:29.044Z,51.60
2019-03-30T11:10:40.257Z,51.80
2019-03-30T11:13:48.132Z,51.67
2019-03-30T11:16:56.226Z,50.40
2019-03-30T11:20:04.544Z,51.10
2019-03-30T11:23:12.735Z,50.47
2019-03-30T11:26:20.619Z,50.96
2019-03-30T11:29:28.554Z,50.91
2019-03-30T11:32:38.813Z,49.72
2019-03-30T11:35:46.750Z,50.23
2019-03-30T11:38:56.451Z,49.46
2019-03-30T11:42:05.340Z,47.25
2019-03-30T11:45:13.301Z,48.79
2019-03-30T11:48:24.189Z,48.49
2019-03-30T11:51:32.152Z,47.96
2019-03-30T11:54:40.492Z,47.47
2019-03-30T11:57:48.321Z,49.06
2019-03-30T12:00:56.403Z,50.21
2019-03-30T12:04:04.338Z,49.97
2019-03-30T12:07:12.277Z,48.11
2019-03-30T12:10:20.241Z,47.42
2019-03-30T12:13:28.504Z,48.48
2019-03-30T12:16:36.820Z,48.54
2019-03-30T12:19:44.699Z,49.13
2019-03-30T12:22:52.595Z,48.69
2019-03-30T12:26:00.628Z,47.29
2019-03-30T12:29:08.540Z,46.95
2019-03-30T12:32:18.008Z,47.25
2019-03-30T12:35:26.273Z,50.19
2019-03-30T12:38:35.811Z,46.66
2019-03-30T12:41:46.453Z,45.23
2019-03-30T12:44:54.325Z,47.15
2019-03-30T12:48:02.256Z,46.88
2019-03-30T12:51:10.273Z,48.25
2019-03-30T12:54:19.885Z,47.54
2019-03-30T12:57:28.140Z,46.14
2019-03-30T13:00:41.991Z,46.70
2019-03-30T13:03:52.209Z,46.13
2019-03-30T13:07:01.060Z,46.90
2019-03-30T13:10:10.067Z,47.21
2019-03-30T13:13:20.737Z,46.49
2019-03-30T13:16:28.950Z,47.10
2019-03-30T13:19:36.930Z,46.51
2019-03-30T13:22:45.087Z,45.47
2019-03-30T13:26:02.794Z,45.95
2019-03-30T13:29:03.623Z,48.31
2019-03-30T13:32:11.618Z,43.99
2019-03-30T13:35:19.523Z,42.58
2019-03-30T13:38:27.333Z,42.63
2019-03-30T13:41:38.413Z,44.32
2019-03-30T13:44:46.278Z,43.90
2019-03-30T13:47:54.169Z,41.28
2019-03-30T13:51:02.043Z,42.87
2019-03-30T13:54:09.978Z,43.21
2019-03-30T13:57:17.802Z,42.86
2019-03-30T14:00:25.707Z,43.32
2019-03-30T14:03:34.665Z,42.70
2019-03-30T14:06:42.502Z,43.01
2019-03-30T14:09:50.387Z,42.71
2019-03-30T14:12:59.866Z,42.35
2019-03-30T14:16:07.784Z,41.99
2019-03-30T14:19:17.079Z,42.31
2019-03-30T14:22:25.193Z,40.82
2019-03-30T14:25:36.193Z,41.96
2019-03-30T14:28:45.767Z,43.83
2019-03-30T14:31:53.770Z,41.99
2019-03-30T14:35:01.642Z,41.85
2019-03-30T14:38:09.851Z,40.96
2019-03-30T14:41:17.768Z,40.46
2019-03-30T14:44:25.846Z,43.83
2019-03-30T14:47:35.157Z,42.86
2019-03-30T14:50:43.271Z,42.78
2019-03-30T14:53:51.140Z,42.55
2019-03-30T14:56:59.057Z,42.37
2019-03-30T15:00:07.759Z,43.47
2019-03-30T15:03:15.773Z,42.11
2019-03-30T15:06:23.658Z,41.52
2019-03-30T15:09:32.494Z,42.30
2019-03-30T15:12:41.514Z,42.04
2019-03-30T15:15:49.379Z,41.43
2019-03-30T15:18:57.236Z,41.23
2019-03-30T15:22:05.394Z,41.58
2019-03-30T15:25:15.748Z,40.44
2019-03-30T15:28:23.728Z,40.87
2019-03-30T15:31:31.655Z,41.02
2019-03-30T15:34:40.695Z,42.07
2019-03-30T15:37:48.583Z,41.27
2019-03-30T15:40:56.527Z,39.62
2019-03-30T15:44:04.431Z,41.82
2019-03-30T15:47:12.428Z,41.28
2019-03-30T15:50:21.760Z,39.62
2019-03-30T15:53:29.680Z,40.76
2019-03-30T15:56:37.793Z,39.92
2019-03-30T15:59:45.692Z,39.18
2019-03-30T16:02:54.649Z,39.69
2019-03-30T16:06:02.520Z,40.18
2019-03-30T16:09:10.388Z,39.56
2019-03-30T16:12:18.102Z,40.76
2019-03-30T16:15:26.161Z,41.32
2019-03-30T16:18:34.290Z,39.87
2019-03-30T16:21:42.568Z,41.91
2019-03-30T16:24:50.711Z,41.34
2019-03-30T16:27:58.690Z,42.40
2019-03-30T16:31:06.687Z,42.43
2019-03-30T16:34:14.715Z,43.57
2019-03-30T16:37:23.720Z,44.08
2019-03-30T16:40:33.188Z,43.35
2019-03-30T16:43:44.050Z,45.24
2019-03-30T16:46:52.172Z,43.94
2019-03-30T16:50:00.467Z,46.12
2019-03-30T16:53:08.167Z,45.08
2019-03-30T16:56:16.099Z,46.03
2019-03-30T16:59:23.993Z,47.39
2019-03-30T17:02:31.832Z,49.30
2019-03-30T17:05:39.938Z,49.94
2019-03-30T17:08:47.827Z,51.04
2019-03-30T17:11:55.716Z,50.00
2019-03-30T17:15:03.567Z,51.33
2019-03-30T17:18:12.614Z,54.57
2019-03-30T17:21:20.592Z,57.50
2019-03-30T17:24:30.445Z,57.46
2019-03-30T17:27:39.277Z,56.82
2019-03-30T17:30:47.256Z,57.25
2019-03-30T17:33:55.276Z,59.36
2019-03-30T17:37:03.179Z,60.16
2019-03-30T17:40:11.821Z,60.18
2019-03-30T17:43:19.761Z,61.88
2019-03-30T17:46:28.237Z,63.24
2019-03-30T17:49:36.230Z,63.37
2019-03-30T17:52:44.089Z,64.82
2019-03-30T17:55:51.963Z,65.29
2019-03-30T17:59:00.015Z,65.80
2019-03-30T18:02:08.163Z,66.41
2019-03-30T18:05:18.409Z,69.24
2019-03-30T18:08:26.173Z,67.87
2019-03-30T18:11:34.309Z,66.87
2019-03-30T18:14:42.193Z,65.92
2019-03-30T18:17:50.121Z,69.24
2019-03-30T18:20:58.019Z,68.60
2019-03-30T18:24:05.999Z,68.71
2019-03-30T18:27:13.682Z,69.42
2019-03-30T18:30:36.354Z,73.88
2019-03-30T18:33:44.785Z,76.92
2019-03-30T18:36:55.503Z,74.67
2019-03-30T18:40:03.703Z,72.57
2019-03-30T18:43:11.995Z,78.60
2019-03-30T18:46:19.934Z,76.11
2019-03-30T18:49:27.891Z,74.22
2019-03-30T18:52:36.094Z,73.08
2019-03-30T18:55:44.002Z,73.84
2019-03-30T18:58:51.881Z,74.10
2019-03-30T19:02:00.000Z,80.46
2019-03-30T19:05:11.183Z,76.75
2019-03-30T19:08:18.977Z,76.44
2019-03-30T19:11:26.645Z,75.93
2019-03-30T19:14:34.406Z,80.06
2019-03-30T19:17:42.183Z,76.26
2019-03-30T19:20:50.067Z,77.32
2019-03-30T19:23:57.975Z,76.19
2019-03-30T19:27:05.726Z,79.77
2019-03-30T19:30:14.126Z,80.84
2019-03-30T19:33:22.265Z,77.50
2019-03-30T19:36:30.046Z,78.29
2019-03-30T19:39:37.901Z,80.10
2019-03-30T19:42:48.291Z,79.27
2019-03-30T19:45:56.160Z,78.83
2019-03-30T19:49:06.930Z,77.04
2019-03-30T19:52:14.713Z,76.86
2019-03-30T19:55:22.499Z,75.46
2019-03-30T19:58:30.224Z,72.94
2019-03-30T20:01:38.097Z,74.41
2019-03-30T20:04:45.832Z,74.72
2019-03-30T20:07:53.708Z,73.54
2019-03-30T20:11:03.750Z,75.51
2019-03-30T20:14:12.209Z,74.77
2019-03-30T20:17:20.265Z,75.32
2019-03-30T20:20:28.091Z,74.53
2019-03-30T20:23:35.985Z,79.03
2019-03-30T20:26:43.929Z,81.30
2019-03-30T20:29:51.877Z,79.49
2019-03-30T20:32:59.875Z,78.68
2019-03-30T20:36:09.041Z,78.41
2019-03-30T20:39:16.986Z,76.61
2019-03-30T20:42:25.114Z,74.95
2019-03-30T20:45:32.894Z,75.48
2019-03-30T20:48:42.314Z,76.45
2019-03-30T20:51:50.171Z,75.97
2019-03-30T20:54:57.913Z,73.90
2019-03-30T20:58:08.518Z,74.71
2019-03-30T21:01:16.234Z,76.53
2019-03-30T21:04:23.891Z,76.21
2019-03-30T21:07:31.781Z,74.93
2019-03-30T21:10:39.851Z,75.74
2019-03-30T21:13:47.772Z,75.07
2019-03-30T21:16:55.581Z,74.58
2019-03-30T21:20:04.233Z,73.81
2019-03-30T21:23:15.112Z,74.41
2019-03-30T21:26:23.001Z,74.61
2019-03-30T21:29:30.765Z,74.73
2019-03-30T21:32:38.715Z,74.67
2019-03-30T21:35:46.452Z,75.02
2019-03-30T21:38:55.527Z,73.90
2019-03-30T21:42:08.527Z,75.83
2019-03-30T21:45:16.370Z,75.37
2019-03-30T21:48:24.258Z,75.45
2019-03-30T21:51:32.161Z,75.29
2019-03-30T21:54:39.976Z,75.49
2019-03-30T21:57:47.790Z,75.12
2019-03-30T22:00:55.551Z,75.01
2019-03-30T22:04:05.651Z,74.84
2019-03-30T22:07:13.969Z,75.05
2019-03-30T22:10:30.077Z,74.88
2019-03-30T22:13:41.847Z,74.52
2019-03-30T22:16:49.656Z,74.62
2019-03-30T22:19:57.574Z,74.96
2019-03-30T22:23:08.216Z,75.25
2019-03-30T22:26:16.111Z,75.25
2019-03-30T22:29:24.036Z,74.50
2019-03-30T22:32:31.861Z,74.22
2019-03-30T22:35:40.385Z,74.50
2019-03-30T22:38:48.172Z,74.54
2019-03-30T22:41:56.204Z,74.78
2019-03-30T22:45:04.177Z,74.55
2019-03-30T22:48:12.549Z,74.75
2019-03-30T22:51:21.601Z,74.72
2019-03-30T22:54:29.358Z,74.61
2019-03-30T22:57:37.126Z,74.42
2019-03-30T23:01:10.084Z,74.62
2019-03-30T23:04:19.543Z,74.87
2019-03-30T23:07:27.304Z,74.84
2019-03-30T23:10:35.149Z,74.67
2019-03-30T23:13:42.893Z,74.59
2019-03-30T23:16:50.693Z,74.68
2019-03-30T23:20:03.008Z,74.95
2019-03-30T23:23:12.472Z,74.53
2019-03-30T23:26:22.241Z,74.73
2019-03-30T23:29:29.984Z,74.65
2019-03-30T23:32:38.157Z,74.75
2019-03-30T23:35:45.907Z,74.85
2019-03-30T23:38:53.636Z,74.79
2019-03-30T23:42:02.859Z,74.86
2019-03-30T23:45:10.766Z,75.04
2019-03-30T23:48:18.643Z,75.44
2019-03-30T23:51:27.731Z,75.67
2019-03-30T23:54:35.566Z,75.29
2019-03-30T23:57:43.324Z,75.25
